sensor_id;sensor_type;location;lat;lon;timestamp;pressure;altitude;pressure_sealevel;temperature;humidity
47985;BME280;33753;52.912;-7.342;2023-04-06T00:00:04;100249.66;;;7.57;100.00
47985;BME280;33753;52.912;-7.342;2023-04-06T00:02:35;100244.59;;;7.54;100.00
47985;BME280;33753;52.912;-7.342;2023-04-06T00:05:03;100248.13;;;7.54;100.00
47985;BME280;33753;52.912;-7.342;2023-04-06T00:07:31;100237.78;;;7.41;100.00
47985;BME280;33753;52.912;-7.342;2023-04-06T00:10:01;100240.38;;;7.51;100.00
47985;BME280;33753;52.912;-7.342;2023-04-06T00:12:30;100242.22;;;7.51;100.00
47985;BME280;33753;52.912;-7.342;2023-04-06T00:14:59;100242.22;;;7.51;100.00
47985;BME280;33753;52.912;-7.342;2023-04-06T00:17:28;100239.31;;;7.44;100.00
47985;BME280;33753;52.912;-7.342;2023-04-06T00:19:56;100244.53;;;7.46;100.00
47985;BME280;33753;52.912;-7.342;2023-04-06T00:22:24;100246.25;;;7.47;100.00
47985;BME280;33753;52.912;-7.342;2023-04-06T00:24:52;100255.16;;;7.47;100.00
47985;BME280;33753;52.912;-7.342;2023-04-06T00:27:20;100262.38;;;7.47;100.00
47985;BME280;33753;52.912;-7.342;2023-04-06T00:29:50;100253.41;;;7.38;100.00
47985;BME280;33753;52.912;-7.342;2023-04-06T00:32:18;100247.72;;;7.41;100.00
47985;BME280;33753;52.912;-7.342;2023-04-06T00:34:46;100250.56;;;7.39;100.00
47985;BME280;33753;52.912;-7.342;2023-04-06T00:37:15;100251.88;;;7.35;100.00
47985;BME280;33753;52.912;-7.342;2023-04-06T00:39:43;100249.16;;;7.35;100.00
47985;BME280;33753;52.912;-7.342;2023-04-06T00:42:12;100250.88;;;7.36;100.00
47985;BME280;33753;52.912;-7.342;2023-04-06T00:44:41;100250.16;;;7.34;100.00
47985;BME280;33753;52.912;-7.342;2023-04-06T00:47:11;100237.25;;;7.38;100.00
47985;BME280;33753;52.912;-7.342;2023-04-06T00:49:39;100244.84;;;7.42;100.00
47985;BME280;33753;52.912;-7.342;2023-04-06T00:52:07;100245.34;;;7.38;100.00
47985;BME280;33753;52.912;-7.342;2023-04-06T00:54:36;100233.34;;;7.32;100.00
47985;BME280;33753;52.912;-7.342;2023-04-06T00:57:04;100235.88;;;7.34;100.00
47985;BME280;33753;52.912;-7.342;2023-04-06T00:59:33;100225.59;;;7.29;100.00
47985;BME280;33753;52.912;-7.342;2023-04-06T01:02:04;100214.28;;;7.25;100.00
47985;BME280;33753;52.912;-7.342;2023-04-06T01:04:40;100226.06;;;7.24;100.00
47985;BME280;33753;52.912;-7.342;2023-04-06T01:07:14;100213.81;;;7.30;100.00
47985;BME280;33753;52.912;-7.342;2023-04-06T01:09:53;100216.47;;;7.22;100.00
47985;BME280;33753;52.912;-7.342;2023-04-06T01:12:25;100212.16;;;7.29;100.00
47985;BME280;33753;52.912;-7.342;2023-04-06T01:14:53;100205.06;;;7.28;100.00
47985;BME280;33753;52.912;-7.342;2023-04-06T01:17:22;100210.44;;;7.28;100.00
47985;BME280;33753;52.912;-7.342;2023-04-06T01:19:52;100206.75;;;7.29;100.00
47985;BME280;33753;52.912;-7.342;2023-04-06T01:22:29;100213.69;;;7.32;100.00
47985;BME280;33753;52.912;-7.342;2023-04-06T01:25:00;100218.34;;;7.30;100.00
47985;BME280;33753;52.912;-7.342;2023-04-06T01:27:51;100217.22;;;7.32;100.00
47985;BME280;33753;52.912;-7.342;2023-04-06T01:30:43;100218.19;;;7.31;100.00
47985;BME280;33753;52.912;-7.342;2023-04-06T01:33:24;100216.38;;;7.32;100.00
47985;BME280;33753;52.912;-7.342;2023-04-06T01:36:00;100233.34;;;7.32;100.00
47985;BME280;33753;52.912;-7.342;2023-04-06T01:38:30;100232.34;;;7.33;100.00
47985;BME280;33753;52.912;-7.342;2023-04-06T01:40:59;100234.03;;;7.34;100.00
47985;BME280;33753;52.912;-7.342;2023-04-06T01:43:33;100236.56;;;7.36;100.00
47985;BME280;33753;52.912;-7.342;2023-04-06T01:46:04;100236.72;;;7.34;100.00
47985;BME280;33753;52.912;-7.342;2023-04-06T01:48:35;100236.03;;;7.32;100.00
47985;BME280;33753;52.912;-7.342;2023-04-06T01:51:15;100220.56;;;7.34;100.00
47985;BME280;33753;52.912;-7.342;2023-04-06T01:53:53;100219.19;;;7.30;100.00
47985;BME280;33753;52.912;-7.342;2023-04-06T01:56:28;100216.88;;;7.35;100.00
47985;BME280;33753;52.912;-7.342;2023-04-06T01:59:03;100218.59;;;7.36;100.00
47985;BME280;33753;52.912;-7.342;2023-04-06T02:01:37;100214.91;;;7.37;100.00
47985;BME280;33753;52.912;-7.342;2023-04-06T02:04:06;100213.19;;;7.36;100.00
47985;BME280;33753;52.912;-7.342;2023-04-06T02:06:34;100208.81;;;7.35;100.00
47985;BME280;33753;52.912;-7.342;2023-04-06T02:09:06;100213.19;;;7.36;100.00
47985;BME280;33753;52.912;-7.342;2023-04-06T02:11:35;100209.81;;;7.34;100.00
47985;BME280;33753;52.912;-7.342;2023-04-06T02:14:03;100206.75;;;7.29;100.00
47985;BME280;33753;52.912;-7.342;2023-04-06T02:16:36;100208.44;;;7.30;100.00
47985;BME280;33753;52.912;-7.342;2023-04-06T02:19:05;100208.44;;;7.30;100.00
47985;BME280;33753;52.912;-7.342;2023-04-06T02:21:33;100222.91;;;7.29;100.00
47985;BME280;33753;52.912;-7.342;2023-04-06T02:24:01;100220.38;;;7.28;100.00
47985;BME280;33753;52.912;-7.342;2023-04-06T02:26:31;100225.22;;;7.24;100.00
47985;BME280;33753;52.912;-7.342;2023-04-06T02:28:59;100225.75;;;7.28;100.00
47985;BME280;33753;52.912;-7.342;2023-04-06T02:31:28;100228.59;;;7.26;100.00
47985;BME280;33753;52.912;-7.342;2023-04-06T02:33:57;100224.06;;;7.26;100.00
47985;BME280;33753;52.912;-7.342;2023-04-06T02:36:26;100227.56;;;7.27;100.00
47985;BME280;33753;52.912;-7.342;2023-04-06T02:38:54;100230.28;;;7.27;100.00
47985;BME280;33753;52.912;-7.342;2023-04-06T02:41:22;100230.22;;;7.19;100.00
47985;BME280;33753;52.912;-7.342;2023-04-06T02:43:52;100233.19;;;7.16;100.00
47985;BME280;33753;52.912;-7.342;2023-04-06T02:46:34;100221.59;;;7.15;100.00
47985;BME280;33753;52.912;-7.342;2023-04-06T02:49:02;100220.63;;;7.16;100.00
47985;BME280;33753;52.912;-7.342;2023-04-06T02:51:33;100224.44;;;7.14;100.00
47985;BME280;33753;52.912;-7.342;2023-04-06T02:54:14;100216.38;;;7.14;100.00
47985;BME280;33753;52.912;-7.342;2023-04-06T02:56:42;100219.06;;;7.14;100.00
47985;BME280;33753;52.912;-7.342;2023-04-06T02:59:13;100210.16;;;7.13;100.00
47985;BME280;33753;52.912;-7.342;2023-04-06T03:01:48;100208.16;;;7.15;100.00
47985;BME280;33753;52.912;-7.342;2023-04-06T03:04:17;100208.31;;;7.14;100.00
47985;BME280;33753;52.912;-7.342;2023-04-06T03:06:46;100204.72;;;7.05;100.00
47985;BME280;33753;52.912;-7.342;2023-04-06T03:09:23;100198.88;;;7.09;100.00
47985;BME280;33753;52.912;-7.342;2023-04-06T03:11:52;100198.47;;;7.04;100.00
47985;BME280;33753;52.912;-7.342;2023-04-06T03:14:22;100190.13;;;7.07;100.00
47985;BME280;33753;52.912;-7.342;2023-04-06T03:16:51;100193.81;;;7.06;100.00
47985;BME280;33753;52.912;-7.342;2023-04-06T03:19:21;100195.34;;;7.09;100.00
47985;BME280;33753;52.912;-7.342;2023-04-06T03:21:50;100190.78;;;7.09;100.00
47985;BME280;33753;52.912;-7.342;2023-04-06T03:24:19;100203.41;;;7.09;100.00
47985;BME280;33753;52.912;-7.342;2023-04-06T03:26:48;100194.13;;;7.03;100.00
47985;BME280;33753;52.912;-7.342;2023-04-06T03:29:17;100198.47;;;7.04;100.00
47985;BME280;33753;52.912;-7.342;2023-04-06T03:31:47;100196.81;;;7.03;100.00
47985;BME280;33753;52.912;-7.342;2023-04-06T03:34:33;100190.88;;;7.00;100.00
47985;BME280;33753;52.912;-7.342;2023-04-06T03:37:01;100182.66;;;7.01;100.00
47985;BME280;33753;52.912;-7.342;2023-04-06T03:39:41;100178.41;;;6.99;100.00
47985;BME280;33753;52.912;-7.342;2023-04-06T03:42:15;100176.91;;;6.96;100.00
47985;BME280;33753;52.912;-7.342;2023-04-06T03:44:52;100177.59;;;6.98;100.00
47985;BME280;33753;52.912;-7.342;2023-04-06T03:47:23;100182.81;;;7.00;100.00
47985;BME280;33753;52.912;-7.342;2023-04-06T03:49:55;100178.59;;;6.97;100.00
47985;BME280;33753;52.912;-7.342;2023-04-06T03:52:23;100190.53;;;6.95;100.00
47985;BME280;33753;52.912;-7.342;2023-04-06T03:54:52;100181.28;;;6.97;100.00
47985;BME280;33753;52.912;-7.342;2023-04-06T03:57:21;100177.06;;;6.95;100.00
47985;BME280;33753;52.912;-7.342;2023-04-06T03:59:49;100183.91;;;6.89;100.00
47985;BME280;33753;52.912;-7.342;2023-04-06T04:02:17;100186.28;;;6.92;100.00
47985;BME280;33753;52.912;-7.342;2023-04-06T04:04:47;100183.03;;;6.88;100.00
47985;BME280;33753;52.912;-7.342;2023-04-06T04:07:15;100179.22;;;6.91;100.00
47985;BME280;33753;52.912;-7.342;2023-04-06T04:09:43;100195.34;;;6.91;100.00
47985;BME280;33753;52.912;-7.342;2023-04-06T04:12:12;100194.66;;;6.89;100.00
47985;BME280;33753;52.912;-7.342;2023-04-06T04:14:41;100194.66;;;6.89;100.00
47985;BME280;33753;52.912;-7.342;2023-04-06T04:17:10;100206.41;;;6.88;100.00
47985;BME280;33753;52.912;-7.342;2023-04-06T04:19:38;100216.19;;;6.89;100.00
47985;BME280;33753;52.912;-7.342;2023-04-06T04:22:08;100219.84;;;6.88;100.00
47985;BME280;33753;52.912;-7.342;2023-04-06T04:24:39;100211.94;;;6.86;100.00
47985;BME280;33753;52.912;-7.342;2023-04-06T04:27:08;100209.72;;;6.82;100.00
47985;BME280;33753;52.912;-7.342;2023-04-06T04:29:37;100216.59;;;6.84;100.00
47985;BME280;33753;52.912;-7.342;2023-04-06T04:32:08;100223.53;;;6.87;100.00
47985;BME280;33753;52.912;-7.342;2023-04-06T04:34:36;100227.91;;;6.88;100.00
47985;BME280;33753;52.912;-7.342;2023-04-06T04:37:11;100228.91;;;6.87;100.00
47985;BME280;33753;52.912;-7.342;2023-04-06T04:39:48;100226.69;;;6.82;100.00
47985;BME280;33753;52.912;-7.342;2023-04-06T04:42:16;100237.13;;;6.85;100.00
47985;BME280;33753;52.912;-7.342;2023-04-06T04:44:49;100229.91;;;6.86;100.00
47985;BME280;33753;52.912;-7.342;2023-04-06T04:47:30;100234.28;;;6.87;100.00
47985;BME280;33753;52.912;-7.342;2023-04-06T04:49:58;100241.97;;;6.82;100.00
47985;BME280;33753;52.912;-7.342;2023-04-06T04:52:28;100243.34;;;6.86;100.00
47985;BME280;33753;52.912;-7.342;2023-04-06T04:55:08;100248.44;;;6.89;100.00
47985;BME280;33753;52.912;-7.342;2023-04-06T04:57:36;100242.50;;;6.85;100.00
47985;BME280;33753;52.912;-7.342;2023-04-06T05:00:05;100256.94;;;6.84;100.00
47985;BME280;33753;52.912;-7.342;2023-04-06T05:02:35;100256.94;;;6.84;100.00
47985;BME280;33753;52.912;-7.342;2023-04-06T05:05:25;100257.88;;;6.75;100.00
47985;BME280;33753;52.912;-7.342;2023-04-06T05:07:56;100248.81;;;6.76;100.00
47985;BME280;33753;52.912;-7.342;2023-04-06T05:10:40;100253.31;;;6.75;100.00
47985;BME280;33753;52.912;-7.342;2023-04-06T05:13:08;100265.53;;;6.70;100.00
47985;BME280;33753;52.912;-7.342;2023-04-06T05:15:36;100260.41;;;6.77;100.00
47985;BME280;33753;52.912;-7.342;2023-04-06T05:18:19;100261.84;;;6.71;100.00
47985;BME280;33753;52.912;-7.342;2023-04-06T05:20:48;100275.19;;;6.63;100.00
47985;BME280;33753;52.912;-7.342;2023-04-06T05:23:23;100270.91;;;6.70;100.00
47985;BME280;33753;52.912;-7.342;2023-04-06T05:25:52;100264.00;;;6.67;100.00
47985;BME280;33753;52.912;-7.342;2023-04-06T05:28:22;100271.50;;;6.64;100.00
47985;BME280;33753;52.912;-7.342;2023-04-06T05:30:50;100272.06;;;6.67;100.00
47985;BME280;33753;52.912;-7.342;2023-04-06T05:33:18;100276.06;;;6.63;100.00
47985;BME280;33753;52.912;-7.342;2023-04-06T05:36:08;100283.88;;;6.56;100.00
47985;BME280;33753;52.912;-7.342;2023-04-06T05:38:44;100288.47;;;6.64;100.00
47985;BME280;33753;52.912;-7.342;2023-04-06T05:41:22;100290.19;;;6.65;100.00
47985;BME280;33753;52.912;-7.342;2023-04-06T05:43:51;100295.28;;;6.58;100.00
47985;BME280;33753;52.912;-7.342;2023-04-06T05:46:19;100294.00;;;6.63;100.00
47985;BME280;33753;52.912;-7.342;2023-04-06T05:48:48;100297.00;;;6.60;100.00
47985;BME280;33753;52.912;-7.342;2023-04-06T05:51:18;100293.06;;;6.54;100.00
47985;BME280;33753;52.912;-7.342;2023-04-06T05:53:49;100298.75;;;6.51;100.00
47985;BME280;33753;52.912;-7.342;2023-04-06T05:56:18;100308.09;;;6.47;100.00
47985;BME280;33753;52.912;-7.342;2023-04-06T05:58:48;100307.28;;;6.36;100.00
47985;BME280;33753;52.912;-7.342;2023-04-06T06:01:22;100305.28;;;6.38;100.00
47985;BME280;33753;52.912;-7.342;2023-04-06T06:03:51;100313.66;;;6.35;100.00
47985;BME280;33753;52.912;-7.342;2023-04-06T06:06:19;100312.25;;;6.31;100.00
47985;BME280;33753;52.912;-7.342;2023-04-06T06:09:12;100315.25;;;6.28;100.00
47985;BME280;33753;52.912;-7.342;2023-04-06T06:11:48;100326.28;;;6.25;100.00
47985;BME280;33753;52.912;-7.342;2023-04-06T06:14:19;100332.25;;;6.19;100.00
47985;BME280;33753;52.912;-7.342;2023-04-06T06:16:48;100341.16;;;6.19;100.00
47985;BME280;33753;52.912;-7.342;2023-04-06T06:19:18;100339.88;;;6.14;100.00
47985;BME280;33753;52.912;-7.342;2023-04-06T06:21:47;100330.56;;;6.18;100.00
47985;BME280;33753;52.912;-7.342;2023-04-06T06:24:16;100331.69;;;6.15;100.00
47985;BME280;33753;52.912;-7.342;2023-04-06T06:26:44;100335.50;;;6.13;100.00
47985;BME280;33753;52.912;-7.342;2023-04-06T06:29:17;100334.97;;;6.09;100.00
47985;BME280;33753;52.912;-7.342;2023-04-06T06:31:45;100341.03;;;6.01;100.00
47985;BME280;33753;52.912;-7.342;2023-04-06T06:34:14;100339.66;;;5.97;100.00
47985;BME280;33753;52.912;-7.342;2023-04-06T06:36:42;100346.13;;;5.95;100.00
47985;BME280;33753;52.912;-7.342;2023-04-06T06:39:15;100345.56;;;5.91;100.00
47985;BME280;33753;52.912;-7.342;2023-04-06T06:41:44;100346.13;;;5.85;100.00
47985;BME280;33753;52.912;-7.342;2023-04-06T06:44:13;100339.38;;;5.81;100.00
47985;BME280;33753;52.912;-7.342;2023-04-06T06:46:41;100349.81;;;5.84;100.00
47985;BME280;33753;52.912;-7.342;2023-04-06T06:49:09;100357.72;;;5.85;100.00
47985;BME280;33753;52.912;-7.342;2023-04-06T06:51:39;100353.47;;;5.93;100.00
47985;BME280;33753;52.912;-7.342;2023-04-06T06:54:07;100354.75;;;5.98;100.00
47985;BME280;33753;52.912;-7.342;2023-04-06T06:56:35;100353.47;;;6.02;100.00
47985;BME280;33753;52.912;-7.342;2023-04-06T06:59:07;100359.78;;;6.21;100.00
47985;BME280;33753;52.912;-7.342;2023-04-06T07:01:35;100371.50;;;6.30;100.00
47985;BME280;33753;52.912;-7.342;2023-04-06T07:04:04;100373.06;;;6.32;100.00
47985;BME280;33753;52.912;-7.342;2023-04-06T07:06:34;100376.97;;;6.48;100.00
47985;BME280;33753;52.912;-7.342;2023-04-06T07:09:03;100380.69;;;6.74;100.00
47985;BME280;33753;52.912;-7.342;2023-04-06T07:11:31;100390.53;;;6.84;100.00
47985;BME280;33753;52.912;-7.342;2023-04-06T07:14:00;100391.84;;;7.07;100.00
47985;BME280;33753;52.912;-7.342;2023-04-06T07:16:29;100391.16;;;7.23;100.00
47985;BME280;33753;52.912;-7.342;2023-04-06T07:18:58;100394.34;;;7.55;100.00
47985;BME280;33753;52.912;-7.342;2023-04-06T07:21:26;100398.09;;;8.24;100.00
47985;BME280;33753;52.912;-7.342;2023-04-06T07:23:55;100411.34;;;8.96;100.00
47985;BME280;33753;52.912;-7.342;2023-04-06T07:26:23;100422.84;;;9.66;100.00
47985;BME280;33753;52.912;-7.342;2023-04-06T07:28:52;100419.97;;;10.09;100.00
47985;BME280;33753;52.912;-7.342;2023-04-06T07:31:22;100423.81;;;10.72;100.00
47985;BME280;33753;52.912;-7.342;2023-04-06T07:33:52;100422.41;;;10.84;100.00
47985;BME280;33753;52.912;-7.342;2023-04-06T07:36:21;100406.88;;;10.70;100.00
47985;BME280;33753;52.912;-7.342;2023-04-06T07:38:49;100408.47;;;10.56;100.00
47985;BME280;33753;52.912;-7.342;2023-04-06T07:41:18;100398.84;;;10.53;100.00
47985;BME280;33753;52.912;-7.342;2023-04-06T07:43:47;100386.78;;;10.72;100.00
47985;BME280;33753;52.912;-7.342;2023-04-06T07:46:15;100390.22;;;10.98;100.00
47985;BME280;33753;52.912;-7.342;2023-04-06T07:48:44;100386.06;;;11.18;100.00
47985;BME280;33753;52.912;-7.342;2023-04-06T07:51:14;100374.41;;;10.78;100.00
47985;BME280;33753;52.912;-7.342;2023-04-06T07:53:45;100350.94;;;10.70;100.00
47985;BME280;33753;52.912;-7.342;2023-04-06T07:56:13;100343.53;;;10.96;100.00
47985;BME280;33753;52.912;-7.342;2023-04-06T07:58:42;100332.22;;;10.52;100.00
47985;BME280;33753;52.912;-7.342;2023-04-06T08:01:10;100327.88;;;10.43;100.00
47985;BME280;33753;52.912;-7.342;2023-04-06T08:03:38;100328.22;;;10.40;100.00
47985;BME280;33753;52.912;-7.342;2023-04-06T08:06:07;100325.19;;;10.35;100.00
47985;BME280;33753;52.912;-7.342;2023-04-06T08:08:36;100325.25;;;10.66;100.00
47985;BME280;33753;52.912;-7.342;2023-04-06T08:11:05;100327.81;;;10.60;100.00
47985;BME280;33753;52.912;-7.342;2023-04-06T08:13:33;100342.03;;;10.62;100.00
47985;BME280;33753;52.912;-7.342;2023-04-06T08:16:02;100362.44;;;10.64;100.00
47985;BME280;33753;52.912;-7.342;2023-04-06T08:18:30;100358.31;;;10.85;100.00
47985;BME280;33753;52.912;-7.342;2023-04-06T08:20:58;100351.66;;;10.96;100.00
47985;BME280;33753;52.912;-7.342;2023-04-06T08:23:26;100370.56;;;11.58;100.00
47985;BME280;33753;52.912;-7.342;2023-04-06T08:25:56;100377.03;;;12.19;100.00
47985;BME280;33753;52.912;-7.342;2023-04-06T08:28:24;100370.97;;;13.06;100.00
47985;BME280;33753;52.912;-7.342;2023-04-06T08:30:52;100366.34;;;13.58;100.00
47985;BME280;33753;52.912;-7.342;2023-04-06T08:33:20;100372.03;;;13.85;100.00
47985;BME280;33753;52.912;-7.342;2023-04-06T08:35:48;100368.47;;;13.63;100.00
47985;BME280;33753;52.912;-7.342;2023-04-06T08:38:17;100367.19;;;13.80;100.00
47985;BME280;33753;52.912;-7.342;2023-04-06T08:40:45;100312.41;;;13.19;100.00
47985;BME280;33753;52.912;-7.342;2023-04-06T08:43:17;100307.81;;;13.19;100.00
47985;BME280;33753;52.912;-7.342;2023-04-06T08:45:49;100347.59;;;13.63;100.00
47985;BME280;33753;52.912;-7.342;2023-04-06T08:48:17;100345.13;;;13.69;100.00
47985;BME280;33753;52.912;-7.342;2023-04-06T08:50:45;100353.72;;;13.94;100.00
47985;BME280;33753;52.912;-7.342;2023-04-06T08:53:14;100346.81;;;13.70;100.00
47985;BME280;33753;52.912;-7.342;2023-04-06T08:55:43;100358.91;;;14.17;100.00
47985;BME280;33753;52.912;-7.342;2023-04-06T08:58:11;100346.16;;;13.89;100.00
47985;BME280;33753;52.912;-7.342;2023-04-06T09:00:58;100349.84;;;13.60;100.00
47985;BME280;33753;52.912;-7.342;2023-04-06T09:03:28;100351.81;;;13.66;100.00
47985;BME280;33753;52.912;-7.342;2023-04-06T09:05:56;100338.16;;;12.86;100.00
47985;BME280;33753;52.912;-7.342;2023-04-06T09:08:24;100347.31;;;12.70;100.00
47985;BME280;33753;52.912;-7.342;2023-04-06T09:10:53;100348.72;;;12.21;100.00
47985;BME280;33753;52.912;-7.342;2023-04-06T09:13:21;100349.28;;;12.32;100.00
47985;BME280;33753;52.912;-7.342;2023-04-06T09:15:59;100360.34;;;13.26;100.00
47985;BME280;33753;52.912;-7.342;2023-04-06T09:18:28;100389.72;;;14.24;100.00
47985;BME280;33753;52.912;-7.342;2023-04-06T09:20:57;100401.44;;;14.81;100.00
47985;BME280;33753;52.912;-7.342;2023-04-06T09:23:26;100370.94;;;14.29;100.00
47985;BME280;33753;52.912;-7.342;2023-04-06T09:26:08;100348.81;;;14.11;100.00
47985;BME280;33753;52.912;-7.342;2023-04-06T09:28:43;100354.16;;;14.26;100.00
47985;BME280;33753;52.912;-7.342;2023-04-06T09:31:14;100364.47;;;14.30;100.00
47985;BME280;33753;52.912;-7.342;2023-04-06T09:33:44;100343.44;;;14.17;100.00
47985;BME280;33753;52.912;-7.342;2023-04-06T09:36:13;100350.47;;;14.62;100.00
47985;BME280;33753;52.912;-7.342;2023-04-06T09:38:52;100369.53;;;14.68;100.00
47985;BME280;33753;52.912;-7.342;2023-04-06T09:41:21;100370.47;;;14.54;100.00
47985;BME280;33753;52.912;-7.342;2023-04-06T09:43:50;100359.22;;;14.00;100.00
47985;BME280;33753;52.912;-7.342;2023-04-06T09:46:20;100375.91;;;14.19;100.00
47985;BME280;33753;52.912;-7.342;2023-04-06T09:48:49;100367.22;;;14.65;100.00
47985;BME280;33753;52.912;-7.342;2023-04-06T09:51:17;100368.72;;;15.16;100.00
47985;BME280;33753;52.912;-7.342;2023-04-06T09:53:47;100373.47;;;15.69;100.00
47985;BME280;33753;52.912;-7.342;2023-04-06T09:56:20;100360.81;;;15.42;100.00
47985;BME280;33753;52.912;-7.342;2023-04-06T09:58:52;100373.69;;;14.99;100.00
47985;BME280;33753;52.912;-7.342;2023-04-06T10:01:25;100361.84;;;14.79;100.00
47985;BME280;33753;52.912;-7.342;2023-04-06T10:03:55;100366.25;;;15.42;100.00
47985;BME280;33753;52.912;-7.342;2023-04-06T10:06:26;100366.75;;;15.65;100.00
47985;BME280;33753;52.912;-7.342;2023-04-06T10:08:55;100353.97;;;16.46;100.00
47985;BME280;33753;52.912;-7.342;2023-04-06T10:11:24;100359.38;;;17.25;100.00
47985;BME280;33753;52.912;-7.342;2023-04-06T10:13:53;100369.50;;;17.88;100.00
47985;BME280;33753;52.912;-7.342;2023-04-06T10:16:24;100370.16;;;18.16;100.00
47985;BME280;33753;52.912;-7.342;2023-04-06T10:18:56;100368.13;;;18.92;100.00
47985;BME280;33753;52.912;-7.342;2023-04-06T10:21:27;100368.69;;;18.57;100.00
47985;BME280;33753;52.912;-7.342;2023-04-06T10:23:58;100374.56;;;17.91;100.00
47985;BME280;33753;52.912;-7.342;2023-04-06T10:26:26;100383.78;;;17.97;100.00
47985;BME280;33753;52.912;-7.342;2023-04-06T10:28:54;100383.31;;;17.68;100.00
47985;BME280;33753;52.912;-7.342;2023-04-06T10:31:27;100377.41;;;17.71;100.00
47985;BME280;33753;52.912;-7.342;2023-04-06T10:33:56;100373.56;;;18.36;100.00
47985;BME280;33753;52.912;-7.342;2023-04-06T10:36:25;100378.91;;;18.68;100.00
47985;BME280;33753;52.912;-7.342;2023-04-06T10:38:54;100376.50;;;18.97;100.00
47985;BME280;33753;52.912;-7.342;2023-04-06T10:41:22;100368.88;;;18.99;100.00
47985;BME280;33753;52.912;-7.342;2023-04-06T10:43:54;100368.53;;;18.70;100.00
47985;BME280;33753;52.912;-7.342;2023-04-06T10:46:28;100371.84;;;18.97;100.00
47985;BME280;33753;52.912;-7.342;2023-04-06T10:48:57;100372.00;;;19.03;100.00
47985;BME280;33753;52.912;-7.342;2023-04-06T10:51:27;100365.38;;;19.10;100.00
47985;BME280;33753;52.912;-7.342;2023-04-06T10:53:56;100367.09;;;19.23;100.00
47985;BME280;33753;52.912;-7.342;2023-04-06T10:56:24;100366.16;;;19.48;100.00
47985;BME280;33753;52.912;-7.342;2023-04-06T10:58:54;100377.78;;;19.43;100.00
47985;BME280;33753;52.912;-7.342;2023-04-06T11:01:24;100369.88;;;19.96;100.00
47985;BME280;33753;52.912;-7.342;2023-04-06T11:03:55;100379.38;;;19.81;100.00
47985;BME280;33753;52.912;-7.342;2023-04-06T11:06:27;100385.59;;;19.46;100.00
47985;BME280;33753;52.912;-7.342;2023-04-06T11:08:57;100378.41;;;18.34;100.00
47985;BME280;33753;52.912;-7.342;2023-04-06T11:11:26;100392.28;;;18.14;100.00
47985;BME280;33753;52.912;-7.342;2023-04-06T11:14:00;100388.78;;;17.68;100.00
47985;BME280;33753;52.912;-7.342;2023-04-06T11:16:31;100395.53;;;17.98;100.00
47985;BME280;33753;52.912;-7.342;2023-04-06T11:19:03;100395.56;;;18.23;100.00
47985;BME280;33753;52.912;-7.342;2023-04-06T11:21:34;100396.19;;;18.25;100.00
47985;BME280;33753;52.912;-7.342;2023-04-06T11:24:09;100397.03;;;18.25;100.00
47985;BME280;33753;52.912;-7.342;2023-04-06T11:26:43;100411.28;;;17.70;100.00
47985;BME280;33753;52.912;-7.342;2023-04-06T11:29:19;100408.31;;;17.72;100.00
47985;BME280;33753;52.912;-7.342;2023-04-06T11:31:53;100404.41;;;17.16;100.00
47985;BME280;33753;52.912;-7.342;2023-04-06T11:34:25;100407.84;;;16.98;100.00
47985;BME280;33753;52.912;-7.342;2023-04-06T11:36:57;100416.78;;;17.25;100.00
47985;BME280;33753;52.912;-7.342;2023-04-06T11:39:29;100415.53;;;17.66;100.00
47985;BME280;33753;52.912;-7.342;2023-04-06T11:42:00;100409.56;;;18.33;100.00
47985;BME280;33753;52.912;-7.342;2023-04-06T11:44:33;100431.69;;;18.82;100.00
47985;BME280;33753;52.912;-7.342;2023-04-06T11:47:03;100419.19;;;18.42;100.00
47985;BME280;33753;52.912;-7.342;2023-04-06T11:49:37;100413.28;;;18.45;100.00
47985;BME280;33753;52.912;-7.342;2023-04-06T11:52:14;100422.50;;;18.51;100.00
47985;BME280;33753;52.912;-7.342;2023-04-06T11:54:47;100425.34;;;18.12;100.00
47985;BME280;33753;52.912;-7.342;2023-04-06T11:57:21;100420.47;;;17.51;100.00
47985;BME280;33753;52.912;-7.342;2023-04-06T11:59:55;100429.72;;;17.82;100.00
47985;BME280;33753;52.912;-7.342;2023-04-06T12:02:31;100421.28;;;17.51;100.00
47985;BME280;33753;52.912;-7.342;2023-04-06T12:05:05;100425.09;;;16.85;100.00
47985;BME280;33753;52.912;-7.342;2023-04-06T12:07:39;100423.44;;;16.64;100.00
47985;BME280;33753;52.912;-7.342;2023-04-06T12:10:12;100422.06;;;17.20;100.00
47985;BME280;33753;52.912;-7.342;2023-04-06T12:12:45;100415.91;;;16.52;100.00
47985;BME280;33753;52.912;-7.342;2023-04-06T12:15:17;100430.06;;;17.15;100.00
47985;BME280;33753;52.912;-7.342;2023-04-06T12:17:45;100423.47;;;17.74;100.00
47985;BME280;33753;52.912;-7.342;2023-04-06T12:20:17;100432.94;;;18.36;100.00
47985;BME280;33753;52.912;-7.342;2023-04-06T12:22:54;100429.13;;;18.62;100.00
47985;BME280;33753;52.912;-7.342;2023-04-06T12:25:25;100428.47;;;18.16;100.00
47985;BME280;33753;52.912;-7.342;2023-04-06T12:27:58;100431.13;;;17.14;100.00
47985;BME280;33753;52.912;-7.342;2023-04-06T12:30:32;100437.28;;;16.89;100.00
47985;BME280;33753;52.912;-7.342;2023-04-06T12:33:05;100439.81;;;16.77;100.00
47985;BME280;33753;52.912;-7.342;2023-04-06T12:35:36;100436.81;;;17.05;100.00
47985;BME280;33753;52.912;-7.342;2023-04-06T12:38:06;100450.72;;;16.97;100.00
47985;BME280;33753;52.912;-7.342;2023-04-06T12:40:36;100439.50;;;17.25;100.00
47985;BME280;33753;52.912;-7.342;2023-04-06T12:43:08;100447.47;;;17.72;100.00
47985;BME280;33753;52.912;-7.342;2023-04-06T12:45:40;100450.88;;;18.06;100.00
47985;BME280;33753;52.912;-7.342;2023-04-06T12:48:08;100443.09;;;18.03;100.00
47985;BME280;33753;52.912;-7.342;2023-04-06T12:50:39;100445.34;;;18.38;100.00
47985;BME280;33753;52.912;-7.342;2023-04-06T12:53:09;100452.38;;;18.02;100.00